Lockhart, AL

2:29 PM CST en Enero 26, 2015 (GMT -0600)
Florala | Change Station
CLOSE
Current Station
Aeropuerto
Location: Florala,
Altura: 315 ft
Estaciones meteorológicas cercanas

Alt 315 ft 31.04 °N, 86.31 °W | Updated 31 minutes ago

Despejado
Despejado
54 ° F
Sensación térmica 54 ° F
N
9
Viento Variable Viento desde NNO
Gusts 17 mph

Hoy
Alta -- | Baja -- ° F
--% Posibilidad de precipitaciones
Ayer
Alta -- | Baja -- ° F
Precip. -- pul
6:40 AM 5:15 PM
Creciente, 46% visible
Presión 29.98 pul
Visibilidad 10.0 Millas
Nubes Despejado
Punto de rocío 36 ° F
Humedad 51%
Precipitaciones 0.00 pul
Espesor de la nieve No disponible.
UV 4 de una escala de 12
Polen 6.30 de una escala de 12
Calidad del aire No disponible.
Flu Activity No disponible.
METAR K0J4 261958Z AUTO 33008G15KT 300V360 10SM CLR 12/02 A2998 RMK AO2 SLP150 T01220022 $

More Conditions Fewer Conditions

Presión 29.98 pul
Visibilidad 10.0 Millas
Nubes Despejado
Punto de rocío 36 ° F
Humedad 51%
Precipitaciones 0.00 pul
Espesor de la nieve No disponible.
UV 4 de una escala de 12
Polen 6.30 de una escala de 12
Calidad del aire No disponible.
Flu Activity No disponible.
METAR K0J4 261958Z AUTO 33008G15KT 300V360 10SM CLR 12/02 A2998 RMK AO2 SLP150 T01220022 $

More Conditions Fewer Conditions

10-Day Weather Forecast

Almanac

Astronomía

Jan. 26, 2015 Salida Puesta
Hora real
Crepúsculo civil
Crepúsculo náutico
Crepúsculo astronómico
Luna
Horas de luz
Horas de luz
Tomorrow will be .
, % of the Moon is Illuminated

Extremos de hoy

Máximos del estado Bajos del estado

Community

WunderPhotos

Upload Photos

1,790,350 ¡fotos cargadas!

WunderBlogs® & News

Nearby

Calidad del aire

  Calidad del aire Índice AQ Contaminante
Not available.

Grosos de nieve

Estación Profundido Altura

Actividad de terremotos

Ciudad Distance Mag. Tiempo y dato
Magnitud mínima muestra es 2,5.

Temperaturas de aguas costeras

Lugar Temperatura

Estaciones meteorológicas cercanas